| time (UTC) | temp F | wind direction | speed knots | gust knots | rain 1hr in | rain 24hr in | rain mn in | humidity % | barometer mb |
| 20260508111824 | 89 | 0.0 | 0.0 | 0.00 | 0.00 | 0.00 | 27 | 997.8 | |
| 20260508111239 | 90 | 0.0 | 0.0 | 0.00 | 0.00 | 0.00 | 27 | 997.8 | |
| 20260508110638 | 90 | 0.0 | 0.0 | 0.00 | 0.00 | 0.00 | 28 | 997.8 | |
| 20260508110037 | 90 | 0.0 | 0.0 | 0.00 | 0.00 | 0.00 | 28 | 997.9 | |
| 20260508105435 | 89 | 0.0 | 0.0 | 0.00 | 0.00 | 0.00 | 27 | 997.9 | |
| 20260508104834 | 89 | 0.0 | 0.0 | 0.00 | 0.00 | 0.00 | 27 | 998.0 | |
| 20260508104233 | 90 | 0.0 | 0.0 | 0.00 | 0.00 | 0.00 | 26 | 998.1 | |
| 20260508103632 | 89 | 0.0 | 0.0 | 0.00 | 0.00 | 0.00 | 28 | 998.0 | |
| 20260508103031 | 89 | 0.0 | 0.0 | 0.00 | 0.00 | 0.00 | 26 | 998.0 | |
| 20260508102429 | 89 | 0.0 | 0.0 | 0.00 | 0.00 | 0.00 | 27 | 998.0 | |
| 20260508101828 | 89 | 0.0 | 0.0 | 0.00 | 0.00 | 0.00 | 28 | 998.0 | |
| 20260508101227 | 88 | 0.0 | 0.0 | 0.00 | 0.00 | 0.00 | 26 | 998.1 | |
| 20260508100626 | 88 | 0.0 | 0.0 | 0.00 | 0.00 | 0.00 | 27 | 998.2 | |
| 20260508100025 | 88 | 0.0 | 0.0 | 0.00 | 0.00 | 0.00 | 27 | 998.3 | |
| 20260508095423 | 89 | 0.0 | 0.0 | 0.00 | 0.00 | 0.00 | 26 | 998.3 | |
| 20260508094822 | 89 | 0.0 | 0.0 | 0.00 | 0.00 | 0.00 | 27 | 998.2 | |
| 20260508094221 | 89 | 0.0 | 0.0 | 0.00 | 0.00 | 0.00 | 28 | 998.2 | |
| 20260508093620 | 88 | 0.0 | 0.0 | 0.00 | 0.00 | 0.00 | 27 | 998.3 | |
| 20260508093019 | 87 | 0.0 | 0.0 | 0.00 | 0.00 | 0.00 | 30 | 998.3 | |
| 20260508092417 | 88 | 0.0 | 0.0 | 0.00 | 0.00 | 0.00 | 27 | 998.4 | |
| 20260508091816 | 88 | 0.0 | 0.0 | 0.00 | 0.00 | 0.00 | 28 | 998.4 | |
| 20260508091215 | 88 | 0.0 | 0.0 | 0.00 | 0.00 | 0.00 | 29 | 998.4 | |
| 20260508090614 | 88 | 0.0 | 0.0 | 0.00 | 0.00 | 0.00 | 31 | 998.5 | |
| 20260508090013 | 87 | 0.0 | 0.0 | 0.00 | 0.00 | 0.00 | 31 | 998.5 | |
| 20260508085411 | 86 | 0.0 | 0.0 | 0.00 | 0.00 | 0.00 | 31 | 998.5 | |
| 20260508084810 | 86 | 0.0 | 0.0 | 0.00 | 0.00 | 0.00 | 32 | 998.6 | |
| 20260508084209 | 86 | 0.0 | 0.0 | 0.00 | 0.00 | 0.00 | 32 | 998.6 | |
| 20260508083719 | 82 | 0.0 | 0.0 | 0.00 | 0.00 | 0.00 | 36 | 998.5 | |
| 20260508083118 | 82 | 0.0 | 0.0 | 0.00 | 0.00 | 0.00 | 36 | 998.5 | |
| 20260508082517 | 82 | 0.0 | 0.0 | 0.00 | 0.00 | 0.00 | 36 | 998.5 | |
| 20260508081916 | 82 | 0.0 | 0.0 | 0.00 | 0.00 | 0.00 | 36 | 998.5 | |
| 20260508081314 | 82 | 0.0 | 0.0 | 0.00 | 0.00 | 0.00 | 36 | 998.5 | |
| 20260508080713 | 82 | 0.0 | 0.0 | 0.00 | 0.00 | 0.00 | 36 | 998.5 | |
| 20260508080112 | 82 | 0.0 | 0.0 | 0.00 | 0.00 | 0.00 | 36 | 998.5 | |
| 20260508075511 | 82 | 0.0 | 0.0 | 0.00 | 0.00 | 0.00 | 36 | 998.5 | |
| 20260508074910 | 82 | 0.0 | 0.0 | 0.00 | 0.00 | 0.00 | 36 | 998.5 | |
| 20260508074308 | 82 | 0.0 | 0.0 | 0.00 | 0.00 | 0.00 | 36 | 998.5 | |
| 20260508073707 | 82 | 0.0 | 0.0 | 0.00 | 0.00 | 0.00 | 36 | 998.5 | |
| 20260508073106 | 82 | 0.0 | 0.0 | 0.00 | 0.00 | 0.00 | 36 | 998.5 | |
| 20260508072505 | 81 | 0.0 | 0.0 | 0.00 | 0.00 | 0.00 | 36 | 998.5 | |
| 20260508071903 | 81 | 0.0 | 0.0 | 0.00 | 0.00 | 0.00 | 36 | 998.5 | |
| 20260508071302 | 80 | 0.0 | 0.0 | 0.00 | 0.00 | 0.00 | 37 | 998.5 | |
| 20260508070701 | 80 | 0.0 | 0.0 | 0.00 | 0.00 | 0.00 | 37 | 998.5 | |
| 20260508070100 | 80 | 0.0 | 0.0 | 0.00 | 0.00 | 0.00 | 37 | 998.5 | |
| 20260508065459 | 79 | 0.0 | 0.0 | 0.00 | 0.00 | 0.00 | 38 | 998.5 | |
| 20260508064857 | 78 | 0.0 | 0.0 | 0.00 | 0.00 | 0.00 | 38 | 998.5 | |
| 20260508064256 | 78 | 0.0 | 0.0 | 0.00 | 0.00 | 0.00 | 38 | 998.4 | |
| 20260508063654 | 77 | 0.0 | 0.0 | 0.00 | 0.00 | 0.00 | 40 | 998.5 | |
| 20260508063053 | 76 | 0.0 | 0.0 | 0.00 | 0.00 | 0.00 | 40 | 998.4 | |
| 20260508062452 | 76 | 0.0 | 0.0 | 0.00 | 0.00 | 0.00 | 40 | 998.5 | |
| 20260508061851 | 75 | 0.0 | 0.0 | 0.00 | 0.00 | 0.00 | 40 | 998.4 | |
| 20260508061249 | 74 | 0.0 | 0.0 | 0.00 | 0.00 | 0.00 | 42 | 998.4 | |
| 20260508060648 | 73 | 0.0 | 0.0 | 0.00 | 0.00 | 0.00 | 42 | 998.4 | |
| 20260508060047 | 73 | 0.0 | 0.0 | 0.00 | 0.00 | 0.00 | 42 | 998.4 | |
| 20260508055446 | 72 | 0.0 | 0.0 | 0.00 | 0.00 | 0.00 | 43 | 998.3 | |
| 20260508054845 | 71 | 0.0 | 0.0 | 0.00 | 0.00 | 0.00 | 44 | 998.3 | |
| 20260508054243 | 71 | 0.0 | 0.0 | 0.00 | 0.00 | 0.00 | 45 | 998.3 | |
| 20260508053642 | 70 | 0.0 | 0.0 | 0.00 | 0.00 | 0.00 | 45 | 998.3 | |
| 20260507164708 | 88 | 0.0 | 0.0 | 0.00 | 0.00 | 0.00 | 20 | 995.5 | |
| 20260507164107 | 88 | 0.0 | 0.0 | 0.00 | 0.00 | 0.00 | 20 | 995.5 | |
| 20260507163505 | 88 | 0.0 | 0.0 | 0.00 | 0.00 | 0.00 | 20 | 995.5 | |
| 20260507162904 | 88 | 0.0 | 0.0 | 0.00 | 0.00 | 0.00 | 20 | 995.5 | |
| 20260507162306 | 88 | 0.0 | 0.0 | 0.00 | 0.00 | 0.00 | 20 | 995.5 | |
| 20260507161702 | 88 | 0.0 | 0.0 | 0.00 | 0.00 | 0.00 | 20 | 995.5 | |
| 20260507161100 | 88 | 0.0 | 0.0 | 0.00 | 0.00 | 0.00 | 20 | 995.5 | |
| 20260507160459 | 88 | 0.0 | 0.0 | 0.00 | 0.00 | 0.00 | 20 | 995.5 | |
| 20260507155858 | 88 | 0.0 | 0.0 | 0.00 | 0.00 | 0.00 | 20 | 995.5 | |
| 20260507155257 | 88 | 0.0 | 0.0 | 0.00 | 0.00 | 0.00 | 20 | 995.5 | |
| 20260507154656 | 88 | 0.0 | 0.0 | 0.00 | 0.00 | 0.00 | 20 | 995.5 | |
| 20260507154054 | 88 | 0.0 | 0.0 | 0.00 | 0.00 | 0.00 | 20 | 995.5 | |
| 20260507153453 | 88 | 0.0 | 0.0 | 0.00 | 0.00 | 0.00 | 20 | 995.5 | |
| 20260507152852 | 88 | 0.0 | 0.0 | 0.00 | 0.00 | 0.00 | 20 | 995.5 | |
| 20260507152251 | 88 | 0.0 | 0.0 | 0.00 | 0.00 | 0.00 | 20 | 995.5 | |
| 20260507151649 | 88 | 0.0 | 0.0 | 0.00 | 0.00 | 0.00 | 20 | 995.5 | |
| 20260507151049 | 88 | 0.0 | 0.0 | 0.00 | 0.00 | 0.00 | 20 | 995.5 | |
| 20260507150447 | 88 | 0.0 | 0.0 | 0.00 | 0.00 | 0.00 | 20 | 995.5 | |
| 20260507145846 | 88 | 0.0 | 0.0 | 0.00 | 0.00 | 0.00 | 20 | 995.5 | |
| 20260507145245 | 88 | 0.0 | 0.0 | 0.00 | 0.00 | 0.00 | 20 | 995.5 | |
| 20260507144644 | 88 | 0.0 | 0.0 | 0.00 | 0.00 | 0.00 | 20 | 995.5 | |
| 20260507144042 | 88 | 0.0 | 0.0 | 0.00 | 0.00 | 0.00 | 20 | 995.5 | |
| 20260507143441 | 88 | 0.0 | 0.0 | 0.00 | 0.00 | 0.00 | 20 | 995.5 | |
| 20260507142840 | 88 | 0.0 | 0.0 | 0.00 | 0.00 | 0.00 | 20 | 995.5 | |
| 20260507142239 | 88 | 0.0 | 0.0 | 0.00 | 0.00 | 0.00 | 20 | 995.5 | |
| 20260507141638 | 88 | 0.0 | 0.0 | 0.00 | 0.00 | 0.00 | 20 | 995.5 | |
| 20260507141036 | 88 | 0.0 | 0.0 | 0.00 | 0.00 | 0.00 | 20 | 995.5 | |
| 20260507140435 | 88 | 0.0 | 0.0 | 0.00 | 0.00 | 0.00 | 20 | 995.5 | |
| 20260507135834 | 89 | 0.0 | 0.0 | 0.00 | 0.00 | 0.00 | 19 | 995.6 | |
| 20260507135233 | 89 | 0.0 | 0.0 | 0.00 | 0.00 | 0.00 | 20 | 995.6 | |
| 20260507134631 | 89 | 0.0 | 0.0 | 0.00 | 0.00 | 0.00 | 20 | 995.6 | |
| 20260507134030 | 89 | 0.0 | 0.0 | 0.00 | 0.00 | 0.00 | 20 | 995.7 | |
| 20260507133429 | 89 | 0.0 | 0.0 | 0.00 | 0.00 | 0.00 | 19 | 995.7 | |
| 20260507132827 | 89 | 0.0 | 0.0 | 0.00 | 0.00 | 0.00 | 19 | 995.8 | |
| 20260507132226 | 89 | 0.0 | 0.0 | 0.00 | 0.00 | 0.00 | 19 | 995.8 | |
| 20260507131625 | 89 | 0.0 | 0.0 | 0.00 | 0.00 | 0.00 | 19 | 995.8 | |
| 20260507131024 | 90 | 0.0 | 0.0 | 0.00 | 0.00 | 0.00 | 19 | 995.9 | |
| 20260507130423 | 90 | 0.0 | 0.0 | 0.00 | 0.00 | 0.00 | 20 | 995.9 | |
| 20260507125821 | 90 | 0.0 | 0.0 | 0.00 | 0.00 | 0.00 | 19 | 996.0 | |
| 20260507125220 | 90 | 0.0 | 0.0 | 0.00 | 0.00 | 0.00 | 19 | 996.0 | |
| 20260507124619 | 90 | 0.0 | 0.0 | 0.00 | 0.00 | 0.00 | 18 | 996.0 | |
| 20260507124018 | 90 | 0.0 | 0.0 | 0.00 | 0.00 | 0.00 | 18 | 996.0 | |
| 20260507123418 | 91 | 0.0 | 0.0 | 0.00 | 0.00 | 0.00 | 19 | 996.1 | |
| 20260507122815 | 90 | 0.0 | 0.0 | 0.00 | 0.00 | 0.00 | 19 | 996.2 |